Аэропорт: Сокол. Магадан

ICAO: UHMM

METAR:
2019/01/21 23:00
UHMM 212300Z 08003MPS 9999 BKN036 M02/M06 Q1011 R10/39//35 NOSIG RMK QFE743
METAR:
2019/01/21 21:21
TAF UHMM 211945Z 2121/2303 06005G13MPS 9999 -SHSN DRSN OVC025CB 
      TEMPO 2121/2206 10011G16MPS 3100 -SHSN BLSN OVC018CB 
     FM220600 06003G08MPS 9999 SCT040